createdAt,value
2022-09-04T00:00:14.990Z,53.00
2022-09-04T00:03:22.358Z,52.80
2022-09-04T00:05:58.294Z,53.40
2022-09-04T00:09:00.878Z,53.20
2022-09-04T00:12:02.142Z,54.00
2022-09-04T00:14:40.158Z,54.40
2022-09-04T00:17:14.169Z,53.40
2022-09-04T00:19:53.908Z,53.20
2022-09-04T00:22:47.317Z,53.40
2022-09-04T00:25:28.359Z,53.20
2022-09-04T00:28:36.609Z,53.40
2022-09-04T00:31:28.966Z,53.60
2022-09-04T00:34:29.959Z,53.80
2022-09-04T00:37:07.679Z,53.90
2022-09-04T00:39:44.656Z,53.50
2022-09-04T00:42:54.642Z,53.50
2022-09-04T00:45:33.398Z,54.40
2022-09-04T00:48:21.546Z,53.50
2022-09-04T00:51:16.892Z,53.60
2022-09-04T00:54:03.711Z,54.70
2022-09-04T00:56:55.796Z,53.80
2022-09-04T01:00:08.185Z,54.10
2022-09-04T01:02:59.651Z,55.10
2022-09-04T01:06:01.275Z,54.30
2022-09-04T01:08:56.696Z,54.40
2022-09-04T01:12:03.223Z,54.80
2022-09-04T01:15:29.315Z,55.10
2022-09-04T01:18:24.931Z,55.00
2022-09-04T01:21:23.982Z,54.30
2022-09-04T01:24:37.065Z,55.00
2022-09-04T01:27:22.589Z,55.10
2022-09-04T01:30:11.790Z,54.90
2022-09-04T01:33:01.405Z,54.70
2022-09-04T01:36:05.413Z,54.80
2022-09-04T01:38:55.528Z,55.10
2022-09-04T01:41:29.673Z,54.80
2022-09-04T01:43:58.994Z,54.60
2022-09-04T01:47:02.154Z,54.40
2022-09-04T01:49:50.650Z,55.60
2022-09-04T01:52:47.345Z,55.10
2022-09-04T01:55:41.905Z,55.00
2022-09-04T01:58:41.949Z,55.40
2022-09-04T02:02:04.047Z,54.90
2022-09-04T02:05:05.041Z,56.00
2022-09-04T02:08:16.264Z,55.30
2022-09-04T02:11:02.587Z,55.40
2022-09-04T02:14:08.631Z,55.30
2022-09-04T02:17:02.728Z,54.60
2022-09-04T02:19:58.485Z,55.30
2022-09-04T02:23:03.674Z,55.30
2022-09-04T02:26:03.442Z,56.10
2022-09-04T02:29:05.514Z,55.40
2022-09-04T02:32:17.016Z,54.90
2022-09-04T02:35:06.863Z,55.50
2022-09-04T02:37:57.581Z,55.20
2022-09-04T02:40:36.150Z,55.00
2022-09-04T02:43:35.661Z,55.00
2022-09-04T02:46:51.431Z,55.60
2022-09-04T02:49:30.942Z,56.00
2022-09-04T02:52:57.772Z,55.40
2022-09-04T02:56:00.779Z,56.10
2022-09-04T02:58:52.355Z,56.00
2022-09-04T03:01:39.405Z,56.00
2022-09-04T03:04:34.213Z,55.60
2022-09-04T03:07:22.253Z,56.00
2022-09-04T03:10:00.784Z,56.00
2022-09-04T03:13:29.965Z,55.70
2022-09-04T03:16:47.766Z,56.70
2022-09-04T03:19:31.967Z,56.20
2022-09-04T03:22:10.735Z,55.90
2022-09-04T03:25:11.983Z,55.60
2022-09-04T03:27:41.263Z,56.40
2022-09-04T03:30:15.911Z,55.70
2022-09-04T03:32:59.553Z,56.00
2022-09-04T03:35:39.884Z,55.80
2022-09-04T03:38:33.717Z,56.10
2022-09-04T03:41:11.144Z,56.10
2022-09-04T03:44:18.267Z,55.90
2022-09-04T03:46:54.791Z,56.70
2022-09-04T03:50:00.216Z,56.10
2022-09-04T03:53:05.715Z,56.60
2022-09-04T03:56:09.093Z,56.30
2022-09-04T03:59:11.137Z,56.30
2022-09-04T04:01:52.163Z,56.30
2022-09-04T04:05:08.386Z,55.90
2022-09-04T04:07:49.265Z,56.40
2022-09-04T04:11:05.215Z,56.30
2022-09-04T04:14:22.343Z,56.60
2022-09-04T04:17:23.473Z,56.50
2022-09-04T04:20:34.627Z,56.10
2022-09-04T04:23:38.788Z,56.70
2022-09-04T04:26:32.653Z,56.10
2022-09-04T04:29:25.334Z,56.40
2022-09-04T04:32:20.716Z,56.30
2022-09-04T04:35:03.483Z,56.90
2022-09-04T04:37:50.263Z,56.90
2022-09-04T04:40:47.751Z,57.00
2022-09-04T04:43:46.784Z,56.50
2022-09-04T04:46:45.739Z,56.70
2022-09-04T04:49:26.113Z,56.60
2022-09-04T04:52:32.551Z,57.00
2022-09-04T04:55:32.495Z,57.10
2022-09-04T04:58:39.372Z,57.10
2022-09-04T05:01:35.730Z,57.10
2022-09-04T05:04:25.293Z,56.70
2022-09-04T05:07:09.979Z,56.80
2022-09-04T05:09:58.335Z,57.00
2022-09-04T05:12:44.989Z,57.20
2022-09-04T05:15:58.164Z,56.70
2022-09-04T05:18:33.793Z,57.20
2022-09-04T05:21:21.511Z,57.10
2022-09-04T05:24:22.634Z,57.20
2022-09-04T05:27:12.551Z,57.30
2022-09-04T05:30:31.022Z,57.20
2022-09-04T05:33:12.817Z,57.20
2022-09-04T05:36:16.920Z,56.90
2022-09-04T05:38:52.253Z,57.60
2022-09-04T05:41:49.262Z,57.20
2022-09-04T05:44:39.873Z,57.70
2022-09-04T05:47:33.668Z,57.50
2022-09-04T05:50:24.869Z,57.20
2022-09-04T05:53:19.308Z,57.60
2022-09-04T05:56:01.630Z,57.60
2022-09-04T05:58:53.992Z,57.30
2022-09-04T06:01:35.910Z,57.70
2022-09-04T06:04:27.205Z,57.20
2022-09-04T06:06:56.116Z,57.90
2022-09-04T06:09:41.787Z,57.40
2022-09-04T06:12:37.020Z,57.80
2022-09-04T06:15:42.091Z,57.50
2022-09-04T06:18:26.735Z,57.90
2022-09-04T06:21:44.722Z,57.40
2022-09-04T06:24:19.260Z,58.10
2022-09-04T06:27:08.568Z,57.40
2022-09-04T06:29:59.176Z,57.50
2022-09-04T06:32:52.081Z,58.10
2022-09-04T06:35:59.602Z,58.20
2022-09-04T06:39:01.957Z,58.20
2022-09-04T06:41:40.428Z,58.40
2022-09-04T06:44:37.634Z,57.80
2022-09-04T06:47:32.271Z,57.80
2022-09-04T06:50:37.430Z,58.30
2022-09-04T06:53:32.154Z,58.40
2022-09-04T06:56:29.856Z,58.20
2022-09-04T06:59:19.586Z,58.70
2022-09-04T07:02:26.454Z,57.90
2022-09-04T07:04:59.131Z,58.60
2022-09-04T07:08:04.015Z,58.20
2022-09-04T07:11:07.396Z,58.60
2022-09-04T07:14:16.421Z,58.40
2022-09-04T07:16:58.210Z,58.50
2022-09-04T07:19:46.230Z,58.30
2022-09-04T07:23:05.690Z,58.50
2022-09-04T07:25:49.914Z,58.40
2022-09-04T07:28:53.788Z,58.40
2022-09-04T07:32:18.667Z,58.30
2022-09-04T07:34:55.745Z,58.40
2022-09-04T07:37:43.802Z,58.00
2022-09-04T07:40:38.889Z,58.50
2022-09-04T07:43:09.880Z,58.10
2022-09-04T07:45:51.454Z,58.20
2022-09-04T07:48:46.998Z,58.40
2022-09-04T07:51:18.507Z,58.80
2022-09-04T07:54:33.073Z,58.20
2022-09-04T07:57:25.434Z,58.80
2022-09-04T08:00:18.088Z,58.40
2022-09-04T08:03:06.089Z,58.80
2022-09-04T08:06:04.400Z,58.50
2022-09-04T08:09:06.823Z,59.20
2022-09-04T08:12:09.228Z,59.40
2022-09-04T08:15:27.960Z,58.60
2022-09-04T08:18:19.956Z,58.90
2022-09-04T08:21:18.074Z,58.70
2022-09-04T08:24:24.097Z,59.40
2022-09-04T08:27:51.498Z,59.30
2022-09-04T08:30:23.440Z,59.40
2022-09-04T08:33:22.417Z,59.10
2022-09-04T08:36:10.300Z,59.30
2022-09-04T08:38:56.558Z,59.50
2022-09-04T08:42:18.320Z,59.60
2022-09-04T08:45:47.169Z,59.30
2022-09-04T08:49:28.413Z,59.30
2022-09-04T08:52:14.540Z,59.40
2022-09-04T08:55:29.373Z,58.90
2022-09-04T08:58:48.418Z,59.10
2022-09-04T09:02:03.319Z,59.20
2022-09-04T09:04:36.142Z,59.10
2022-09-04T09:07:19.233Z,58.80
2022-09-04T09:10:45.952Z,58.70
2022-09-04T09:13:24.254Z,58.80
2022-09-04T09:16:19.016Z,58.60
2022-09-04T09:19:43.398Z,58.60
2022-09-04T09:22:48.933Z,58.60
2022-09-04T09:25:20.712Z,58.60
2022-09-04T09:28:20.025Z,58.60
2022-09-04T09:30:56.240Z,58.80
2022-09-04T09:34:31.636Z,59.50
2022-09-04T09:37:38.387Z,59.00
2022-09-04T09:40:32.229Z,58.80
2022-09-04T09:43:17.013Z,58.70
2022-09-04T09:46:11.096Z,58.40
2022-09-04T09:49:17.801Z,58.50
2022-09-04T09:52:31.425Z,58.40
2022-09-04T09:55:16.203Z,58.00
2022-09-04T09:58:04.780Z,57.80
2022-09-04T10:01:04.331Z,57.90
2022-09-04T10:03:52.517Z,57.70
2022-09-04T10:07:00.232Z,57.50
2022-09-04T10:09:54.536Z,57.50
2022-09-04T10:12:57.731Z,57.50
2022-09-04T10:16:05.846Z,57.30
2022-09-04T10:19:16.388Z,57.30
2022-09-04T10:22:19.607Z,56.90
2022-09-04T10:25:31.798Z,57.00
2022-09-04T10:28:25.949Z,57.10
2022-09-04T10:31:29.176Z,56.80
2022-09-04T10:34:27.015Z,56.60
2022-09-04T10:37:27.599Z,56.50
2022-09-04T10:40:45.192Z,56.30
2022-09-04T10:43:50.793Z,56.30
2022-09-04T10:46:48.425Z,56.30
2022-09-04T10:49:59.629Z,56.40
2022-09-04T10:53:09.247Z,56.30
2022-09-04T10:55:57.753Z,56.10
2022-09-04T10:59:15.755Z,56.10
2022-09-04T11:02:37.872Z,55.70
2022-09-04T11:05:29.978Z,55.50
2022-09-04T11:08:43.580Z,55.30
2022-09-04T11:11:52.693Z,55.20
2022-09-04T11:14:28.844Z,55.10
2022-09-04T11:17:33.652Z,55.30
2022-09-04T11:21:10.250Z,55.00
2022-09-04T11:24:26.220Z,55.10
2022-09-04T11:27:22.566Z,55.00
2022-09-04T11:30:15.270Z,54.20
2022-09-04T11:33:33.251Z,53.80
2022-09-04T11:36:39.436Z,53.70
2022-09-04T11:39:50.441Z,54.00
2022-09-04T11:42:35.328Z,53.40
2022-09-04T11:45:34.817Z,53.20
2022-09-04T11:48:47.420Z,52.90
2022-09-04T11:51:56.124Z,52.40
2022-09-04T11:55:04.572Z,52.20
2022-09-04T11:57:54.307Z,52.60
2022-09-04T12:00:23.907Z,51.70
2022-09-04T12:03:26.290Z,51.80
2022-09-04T12:06:21.690Z,51.10
2022-09-04T12:09:37.996Z,50.70
2022-09-04T12:12:30.275Z,50.50
2022-09-04T12:15:54.565Z,50.30
2022-09-04T12:18:34.695Z,50.30
2022-09-04T12:21:19.228Z,50.00
2022-09-04T12:24:33.038Z,49.60
2022-09-04T12:27:21.089Z,49.20
2022-09-04T12:30:21.242Z,49.30
2022-09-04T12:33:57.492Z,48.40
2022-09-04T12:37:02.077Z,48.30
2022-09-04T12:40:04.294Z,47.80
2022-09-04T12:42:39.297Z,46.70
2022-09-04T12:45:18.010Z,47.00
2022-09-04T12:48:11.074Z,46.10
2022-09-04T12:50:59.087Z,46.20
2022-09-04T12:53:49.319Z,46.20
2022-09-04T12:56:49.097Z,44.50
2022-09-04T12:59:54.599Z,44.50
2022-09-04T13:03:11.751Z,44.80
2022-09-04T13:06:12.686Z,44.80
2022-09-04T13:08:46.693Z,44.10
2022-09-04T13:11:28.628Z,44.30
2022-09-04T13:14:32.261Z,43.50
2022-09-04T13:17:01.808Z,43.40
2022-09-04T13:19:50.959Z,43.20
2022-09-04T13:22:57.929Z,42.50
2022-09-04T13:26:03.881Z,41.50
2022-09-04T13:28:58.226Z,41.90
2022-09-04T13:31:35.605Z,41.40
2022-09-04T13:35:19.794Z,41.30
2022-09-04T13:38:15.852Z,41.60
2022-09-04T13:41:06.342Z,40.40
2022-09-04T13:44:15.752Z,39.20
2022-09-04T13:47:05.176Z,38.70
2022-09-04T13:49:56.775Z,38.90
2022-09-04T13:52:38.937Z,38.30
2022-09-04T13:55:34.467Z,38.70
2022-09-04T13:58:10.851Z,39.30
2022-09-04T14:00:50.017Z,38.70
2022-09-04T14:03:51.138Z,37.50
2022-09-04T14:06:22.310Z,38.40
2022-09-04T14:09:04.409Z,37.40
2022-09-04T14:12:01.827Z,36.70
2022-09-04T14:15:00.024Z,36.20
2022-09-04T14:18:16.263Z,35.70
2022-09-04T14:21:10.099Z,34.80
2022-09-04T14:24:14.922Z,35.30
2022-09-04T14:26:52.533Z,35.60
2022-09-04T14:29:38.787Z,35.00
2022-09-04T14:32:22.593Z,34.60
2022-09-04T14:35:24.138Z,34.80
2022-09-04T14:38:32.532Z,34.90
2022-09-04T14:41:35.894Z,34.10
2022-09-04T14:44:42.508Z,33.90
2022-09-04T14:47:40.915Z,33.50
2022-09-04T14:50:14.285Z,33.70
2022-09-04T14:52:51.978Z,32.50
2022-09-04T14:55:42.969Z,31.10
2022-09-04T14:58:27.376Z,31.70
2022-09-04T15:01:23.572Z,30.80
2022-09-04T15:04:25.198Z,31.10
2022-09-04T15:07:11.295Z,32.10
2022-09-04T15:09:45.663Z,30.60
2022-09-04T15:12:26.106Z,30.80
2022-09-04T15:15:16.853Z,30.30
2022-09-04T15:18:01.985Z,29.80
2022-09-04T15:20:36.038Z,29.60
2022-09-04T15:23:24.706Z,30.00
2022-09-04T15:26:32.162Z,29.90
2022-09-04T15:29:28.404Z,30.20
2022-09-04T15:32:09.406Z,29.80
2022-09-04T15:34:41.718Z,29.80
2022-09-04T15:37:29.227Z,30.00
2022-09-04T15:40:16.599Z,29.80
2022-09-04T15:43:10.408Z,30.60
2022-09-04T15:45:54.289Z,30.00
2022-09-04T15:48:55.974Z,29.80
2022-09-04T15:51:50.464Z,29.80
2022-09-04T15:54:34.468Z,30.20
2022-09-04T15:57:43.710Z,30.00
2022-09-04T16:00:20.573Z,30.00
2022-09-04T16:03:09.004Z,30.00
2022-09-04T16:05:54.633Z,30.00
2022-09-04T16:08:45.066Z,30.40
2022-09-04T16:11:26.169Z,29.80
2022-09-04T16:14:03.832Z,29.90
2022-09-04T16:16:49.339Z,29.80
2022-09-04T16:19:35.341Z,29.90
2022-09-04T16:22:27.022Z,30.10
2022-09-04T16:25:29.622Z,29.90
2022-09-04T16:28:04.648Z,30.20
2022-09-04T16:30:34.818Z,30.20
2022-09-04T16:33:12.955Z,30.30
2022-09-04T16:35:51.706Z,30.40
2022-09-04T16:38:30.054Z,30.40
2022-09-04T16:41:37.490Z,31.30
2022-09-04T16:44:30.421Z,30.50
2022-09-04T16:47:25.240Z,30.80
2022-09-04T16:50:25.883Z,30.70
2022-09-04T16:53:12.918Z,30.90
2022-09-04T16:56:07.700Z,30.90
2022-09-04T16:58:50.233Z,31.00
2022-09-04T17:01:32.932Z,31.10
2022-09-04T17:04:23.145Z,31.10
2022-09-04T17:07:07.317Z,31.10
2022-09-04T17:10:17.341Z,31.10
2022-09-04T17:13:02.822Z,31.20
2022-09-04T17:15:55.040Z,31.30
2022-09-04T17:18:28.762Z,31.40
2022-09-04T17:29:01.870Z,31.50
2022-09-04T17:29:10.498Z,31.60
2022-09-04T17:29:11.753Z,31.50
2022-09-04T17:31:30.029Z,32.00
2022-09-04T17:40:19.718Z,32.10
2022-09-04T17:40:40.888Z,32.20
2022-09-04T17:41:37.961Z,32.40
2022-09-04T17:44:02.179Z,32.40
2022-09-04T17:46:44.992Z,32.40
2022-09-04T17:49:34.246Z,32.60
2022-09-04T17:52:08.674Z,32.70
2022-09-04T17:54:49.427Z,32.90
2022-09-04T17:57:48.708Z,33.10
2022-09-04T18:00:31.966Z,33.20
2022-09-04T18:03:01.788Z,33.30
2022-09-04T18:05:53.496Z,33.30
2022-09-04T18:08:42.660Z,33.40
2022-09-04T18:11:40.820Z,33.40
2022-09-04T18:14:18.553Z,33.80
2022-09-04T18:17:11.721Z,34.50
2022-09-04T18:19:45.808Z,33.80
2022-09-04T18:22:52.549Z,33.80
2022-09-04T18:25:30.795Z,34.20
2022-09-04T18:28:17.284Z,34.40
2022-09-04T18:37:05.276Z,34.60
2022-09-04T18:37:21.339Z,34.70
2022-09-04T18:37:50.434Z,35.30
2022-09-04T18:44:06.686Z,34.80
2022-09-04T18:50:25.800Z,34.90
2022-09-04T18:50:45.044Z,34.90
2022-09-04T18:50:50.999Z,34.90
2022-09-04T18:52:30.383Z,35.00
2022-09-04T18:55:14.578Z,35.40
2022-09-04T18:58:13.115Z,35.40
2022-09-04T19:01:01.338Z,35.50
2022-09-04T19:04:19.275Z,35.80
2022-09-04T19:07:07.504Z,35.90
2022-09-04T19:10:07.704Z,35.90
2022-09-04T19:12:46.851Z,36.10
2022-09-04T19:15:45.554Z,36.00
2022-09-04T19:18:48.091Z,36.40
2022-09-04T19:21:28.741Z,36.70
2022-09-04T19:24:13.469Z,36.60
2022-09-04T19:26:57.721Z,36.90
2022-09-04T19:29:43.198Z,37.10
2022-09-04T19:32:27.693Z,36.60
2022-09-04T19:35:03.485Z,36.90
2022-09-04T19:42:42.087Z,37.30
2022-09-04T19:46:03.738Z,37.80
2022-09-04T19:46:20.036Z,37.60
2022-09-04T19:47:28.947Z,37.30
2022-09-04T19:53:20.386Z,37.80
2022-09-04T19:53:33.195Z,38.10
2022-09-04T19:56:29.320Z,38.50
2022-09-04T19:59:11.382Z,38.40
2022-09-04T20:01:50.818Z,38.50
2022-09-04T20:04:37.230Z,38.50
2022-09-04T20:07:45.956Z,38.50
2022-09-04T20:10:29.781Z,38.90
2022-09-04T20:13:31.176Z,39.20
2022-09-04T20:16:21.750Z,39.20
2022-09-04T20:18:55.119Z,38.80
2022-09-04T20:21:45.120Z,38.70
2022-09-04T20:24:22.614Z,39.20
2022-09-04T20:27:24.277Z,39.40
2022-09-04T20:30:12.397Z,39.60
2022-09-04T20:33:21.395Z,39.40
2022-09-04T20:36:15.386Z,40.00
2022-09-04T20:39:19.841Z,40.10
2022-09-04T20:42:03.089Z,40.10
2022-09-04T20:46:42.204Z,40.30
2022-09-04T20:52:51.515Z,40.50
2022-09-04T20:53:04.899Z,40.40
2022-09-04T20:54:32.849Z,40.60
2022-09-04T21:00:28.273Z,40.90
2022-09-04T21:03:18.785Z,40.90
2022-09-04T21:03:33.554Z,40.80
2022-09-04T21:06:10.305Z,41.10
2022-09-04T21:08:56.070Z,40.70
2022-09-04T21:11:52.577Z,41.30
2022-09-04T21:14:52.479Z,41.40
2022-09-04T21:18:05.755Z,41.40
2022-09-04T21:21:03.952Z,41.60
2022-09-04T21:24:14.996Z,41.00
2022-09-04T21:27:18.247Z,41.70
2022-09-04T21:30:02.643Z,41.80
2022-09-04T21:32:53.274Z,41.20
2022-09-04T21:35:44.209Z,41.50
2022-09-04T21:39:09.261Z,42.00
2022-09-04T21:42:16.682Z,42.20
2022-09-04T21:45:32.733Z,42.20
2022-09-04T21:48:42.427Z,42.40
2022-09-04T21:51:28.845Z,42.50
2022-09-04T21:58:10.140Z,42.00
2022-09-04T22:02:26.363Z,42.80
2022-09-04T22:02:28.646Z,42.00
2022-09-04T22:04:56.481Z,42.90
2022-09-04T22:10:27.545Z,42.40
2022-09-04T22:13:44.180Z,42.20
2022-09-04T22:14:12.416Z,42.80
2022-09-04T22:17:23.124Z,43.20
2022-09-04T22:20:34.871Z,43.50
2022-09-04T22:24:04.613Z,43.30
2022-09-04T22:26:49.401Z,43.70
2022-09-04T22:29:40.036Z,42.80
2022-09-04T22:32:44.208Z,43.00
2022-09-04T22:35:54.537Z,43.50
2022-09-04T22:39:03.925Z,44.10
2022-09-04T22:42:20.602Z,44.20
2022-09-04T22:45:09.926Z,43.50
2022-09-04T22:48:17.185Z,44.20
2022-09-04T22:51:21.345Z,44.70
2022-09-04T22:53:54.048Z,43.80
2022-09-04T22:56:48.341Z,44.20
2022-09-04T23:00:06.180Z,45.00
2022-09-04T23:03:15.957Z,45.00
2022-09-04T23:07:35.414Z,44.90
2022-09-04T23:13:48.830Z,45.50
2022-09-04T23:13:56.778Z,45.30
2022-09-04T23:15:57.115Z,45.20
2022-09-04T23:19:01.848Z,45.20
2022-09-04T23:26:35.013Z,45.40
2022-09-04T23:26:59.978Z,45.30
2022-09-04T23:28:28.985Z,45.10
2022-09-04T23:31:29.276Z,44.80
2022-09-04T23:34:30.018Z,45.70
2022-09-04T23:37:17.584Z,45.90
2022-09-04T23:40:10.190Z,45.10
2022-09-04T23:43:07.772Z,45.70
2022-09-04T23:45:56.591Z,45.20
2022-09-04T23:48:44.844Z,46.00
2022-09-04T23:51:23.428Z,46.10
2022-09-04T23:53:56.188Z,45.60
2022-09-04T23:56:33.300Z,45.30
2022-09-04T23:59:33.461Z,46.10
